Time;durP1;ratioP1;P1;durP2;ratioP2;P2;SDS_P1;SDS_P2;PMS_P1;PMS_P2;Temp;Humidity;BMP_temperature;BMP_pressure;BME280_temperature;BME280_humidity;BME280_pressure;Samples;Min_cycle;Max_cycle;Signal;HPM_P1;HPM_P2
2022/06/14 00:00:54;;;;;;;8.65;3.28;;;;;;;12.74;75.02;98752.56;5108698;28;20027;-78
2022/06/14 00:03:25;;;;;;;7.57;3.15;;;;;;;12.70;75.00;98749.63;5108381;28;20032;-77
2022/06/14 00:05:52;;;;;;;6.57;3.42;;;;;;;12.70;75.55;98755.13;5108444;28;20039;-77
2022/06/14 00:08:19;;;;;;;8.45;3.33;;;;;;;12.63;75.53;98758.25;5108736;28;20125;-78
2022/06/14 00:10:46;;;;;;;6.47;3.55;;;;;;;12.60;75.18;98766.31;5108433;28;20069;-78
2022/06/14 00:13:12;;;;;;;8.85;3.53;;;;;;;12.61;75.57;98766.00;5108210;28;20085;-77
2022/06/14 00:15:38;;;;;;;5.25;3.05;;;;;;;12.57;75.32;98772.41;5108639;28;20023;-78
2022/06/14 00:18:04;;;;;;;9.60;3.33;;;;;;;12.55;75.82;98772.72;5108573;28;20035;-78
2022/06/14 00:20:29;;;;;;;9.40;3.35;;;;;;;12.54;75.84;98773.00;5108221;28;20036;-77
2022/06/14 00:22:55;;;;;;;5.70;2.95;;;;;;;12.51;76.08;98780.75;5089926;28;20028;-78
2022/06/14 00:25:25;;;;;;;8.38;3.97;;;;;;;12.46;75.51;98777.28;5107685;28;20487;-78
2022/06/14 00:27:52;;;;;;;8.20;3.50;;;;;;;12.39;75.79;98763.91;5089283;28;20019;-79
2022/06/14 00:30:18;;;;;;;9.98;3.42;;;;;;;12.35;75.75;98769.19;5108146;28;20031;-78
2022/06/14 00:32:43;;;;;;;7.65;3.58;;;;;;;12.33;76.04;98767.88;5108402;28;20059;-77
2022/06/14 00:35:09;;;;;;;6.20;3.35;;;;;;;12.26;75.78;98770.97;5108044;28;20095;-78
2022/06/14 00:37:34;;;;;;;6.18;3.10;;;;;;;12.24;76.01;98766.91;5108691;28;20057;-77
2022/06/14 00:40:00;;;;;;;6.72;3.35;;;;;;;12.19;76.10;98768.63;5108026;28;20365;-79
2022/06/14 00:42:25;;;;;;;6.60;3.28;;;;;;;12.17;76.24;98770.03;5108517;28;20031;-78
2022/06/14 00:45:03;;;;;;;7.18;3.20;;;;;;;12.14;76.20;98763.19;5107857;28;20194;-79
2022/06/14 00:47:33;;;;;;;8.43;3.55;;;;;;;12.05;75.90;98764.97;5108765;28;20028;-77
2022/06/14 00:50:04;;;;;;;7.47;3.70;;;;;;;11.93;76.49;98770.09;5108868;28;20030;-78
2022/06/14 00:52:55;;;;;;;5.53;2.85;;;;;;;11.86;76.17;98778.69;5106304;28;20131;-78
2022/06/14 00:55:31;;;;;;;7.43;3.38;;;;;;;11.85;75.92;98779.81;5106536;28;20047;-78
2022/06/14 00:58:07;;;;;;;5.82;3.10;;;;;;;11.86;76.23;98787.78;5109748;28;20034;-80
2022/06/14 01:00:40;;;;;;;7.03;2.95;;;;;;;11.86;76.45;98793.28;5109235;28;20035;-78
2022/06/14 01:03:14;;;;;;;3.78;2.65;;;;;;;11.86;75.74;98792.44;5109501;28;20019;-78
2022/06/14 01:08:30;;;;;;;7.25;3.10;;;;;;;11.73;75.60;98794.84;5109231;28;20109;-79
2022/06/14 01:10:55;;;;;;;6.55;2.75;;;;;;;11.71;76.33;98798.97;5109623;28;20028;-77
2022/06/14 01:13:23;;;;;;;6.35;3.38;;;;;;;11.62;75.81;98796.06;5109580;28;20032;-77
2022/06/14 01:15:50;;;;;;;6.68;2.90;;;;;;;11.50;76.92;98791.00;5109018;28;20023;-76
2022/06/14 01:18:16;;;;;;;6.93;3.15;;;;;;;11.40;77.28;98794.72;5109801;28;20138;-78
2022/06/14 01:20:43;;;;;;;6.32;3.10;;;;;;;11.38;77.35;98796.09;5109594;28;20119;-77
2022/06/14 01:23:11;;;;;;;7.43;3.20;;;;;;;11.32;76.61;98798.91;5109371;28;20023;-77
2022/06/14 01:25:40;;;;;;;4.63;3.00;;;;;;;11.29;77.00;98788.50;5108998;28;20032;-76
2022/06/14 01:28:08;;;;;;;5.88;2.85;;;;;;;11.28;76.16;98795.09;5090942;28;20031;-76
2022/06/14 01:30:42;;;;;;;7.70;3.38;;;;;;;11.29;77.12;98798.69;5107075;28;20070;-76
2022/06/14 01:33:30;;;;;;;4.88;2.45;;;;;;;11.25;76.11;98797.63;5106733;28;20780;-76
2022/06/14 01:35:59;;;;;;;6.35;2.47;;;;;;;11.23;76.06;98797.91;5110937;28;20035;-78
2022/06/14 01:38:25;;;;;;;8.27;3.13;;;;;;;11.20;76.43;98800.44;5109492;28;20472;-77
2022/06/14 01:41:10;;;;;;;6.20;2.80;;;;;;;11.17;76.71;98805.38;5113960;27;20032;-76
2022/06/14 01:43:56;;;;;;;7.03;3.20;;;;;;;11.16;77.17;98811.19;5106821;28;20042;-77
2022/06/14 01:46:27;;;;;;;6.80;2.78;;;;;;;11.12;77.04;98810.94;5111480;27;20031;-78
2022/06/14 01:51:50;;;;;;;6.95;2.50;;;;;;;11.11;76.19;98816.72;5114384;27;20024;-79
2022/06/14 01:51:58;;;;;;;3.40;2.25;;;;;;;11.08;76.71;98806.31;5115901;27;20036;-78
2022/06/14 01:54:50;;;;;;;11.45;3.67;;;;;;;11.06;76.01;98806.59;5113186;28;20026;-77
2022/06/14 01:57:20;;;;;;;5.68;2.92;;;;;;;11.05;76.88;98813.19;5113673;28;20457;-77
2022/06/14 01:59:53;;;;;;;5.50;2.92;;;;;;;11.04;76.40;98810.75;5113376;28;20031;-80
2022/06/14 02:02:37;;;;;;;4.63;2.63;;;;;;;11.01;75.83;98821.22;5113770;28;20016;-80
2022/06/14 02:05:32;;;;;;;9.48;3.08;;;;;;;10.99;76.08;98814.38;5110285;28;20020;-78
2022/06/14 02:08:14;;;;;;;7.03;3.10;;;;;;;10.92;75.44;98820.19;5111140;28;20043;-79
2022/06/14 02:10:51;;;;;;;8.07;3.30;;;;;;;10.90;76.32;98818.88;5109435;28;20024;-78
2022/06/14 02:13:24;;;;;;;8.35;3.15;;;;;;;10.89;75.79;98825.47;5109379;28;20472;-78
2022/06/14 02:16:08;;;;;;;10.15;3.55;;;;;;;10.87;76.59;98823.00;5110024;28;20032;-78
2022/06/14 02:18:45;;;;;;;7.53;3.50;;;;;;;10.82;75.61;98826.59;5113062;27;20055;-79
2022/06/14 02:21:23;;;;;;;8.27;3.80;;;;;;;10.79;76.33;98842.84;5112518;28;20377;-79
2022/06/14 02:24:01;;;;;;;9.65;3.95;;;;;;;10.71;75.85;98836.03;5111420;28;20028;-78
2022/06/14 02:26:33;;;;;;;7.80;4.22;;;;;;;10.70;76.00;98846.19;5107432;28;20023;-78
2022/06/14 02:29:27;;;;;;;10.63;4.95;;;;;;;10.66;75.75;98841.56;5111639;28;20019;-77
2022/06/14 02:31:58;;;;;;;10.23;4.43;;;;;;;10.64;76.21;98847.34;5100964;28;20483;-77
2022/06/14 02:34:30;;;;;;;7.47;4.40;;;;;;;10.60;75.84;98856.44;5109417;28;20043;-77
2022/06/14 02:37:05;;;;;;;7.50;4.20;;;;;;;10.55;75.65;98843.56;5109517;28;20036;-78
2022/06/14 02:39:38;;;;;;;9.52;3.88;;;;;;;10.51;76.31;98845.25;5110830;28;20024;-78
2022/06/14 02:42:06;;;;;;;6.97;4.05;;;;;;;10.49;76.06;98861.16;5111787;28;20026;-77
2022/06/14 02:44:44;;;;;;;8.48;4.55;;;;;;;10.41;75.85;98859.88;5109750;28;20081;-77
2022/06/14 02:47:20;;;;;;;10.65;5.18;;;;;;;10.41;77.20;98868.09;5106397;28;20047;-77
2022/06/14 02:50:24;;;;;;;9.77;6.15;;;;;;;10.37;76.37;98870.56;5110554;28;20417;-76
2022/06/14 02:53:14;;;;;;;11.10;6.93;;;;;;;10.35;76.75;98866.44;5110299;28;20089;-77
2022/06/14 02:55:47;;;;;;;9.52;5.53;;;;;;;10.33;76.61;98872.22;5106425;28;20490;-77
2022/06/14 02:58:27;;;;;;;12.23;6.40;;;;;;;10.32;76.90;98867.84;5110827;28;20028;-77
2022/06/14 03:01:04;;;;;;;;;;;;;;;10.33;76.64;98874.16;5112358;27;20600;-78
2022/06/14 03:03:38;;;;;;;9.68;5.10;;;;;;;10.28;76.48;98867.59;5110329;28;19911;-78
2022/06/14 03:06:31;;;;;;;10.88;5.60;;;;;;;10.30;77.02;98869.22;5110247;28;20046;-77
2022/06/14 03:09:10;;;;;;;10.00;4.70;;;;;;;10.32;76.50;98883.47;5107546;28;20039;-76
2022/06/14 03:12:04;;;;;;;7.10;4.25;;;;;;;10.25;76.46;98883.78;5109160;28;20498;-77
2022/06/14 03:14:48;;;;;;;9.73;4.15;;;;;;;10.23;76.62;98896.97;5110720;28;20084;-77
2022/06/14 03:17:39;;;;;;;10.82;3.85;;;;;;;10.21;76.97;98893.69;5110581;28;20063;-77
2022/06/14 03:20:09;;;;;;;7.32;3.83;;;;;;;10.21;77.00;98894.50;5071945;28;20039;-78
2022/06/14 03:22:50;;;;;;;8.30;3.60;;;;;;;10.21;77.20;98899.16;5109541;28;20345;-78
2022/06/14 03:25:26;;;;;;;7.28;3.80;;;;;;;10.22;76.95;98896.13;5108583;28;20015;-77
2022/06/14 03:28:12;;;;;;;6.55;4.35;;;;;;;10.21;77.30;98899.97;5109138;28;20076;-77
2022/06/14 03:30:42;;;;;;;8.43;4.35;;;;;;;10.21;76.85;98899.97;5109463;28;20031;-77
2022/06/14 03:33:23;;;;;;;7.40;4.15;;;;;;;10.23;77.21;98906.00;5109489;28;20039;-77
2022/06/14 03:35:52;;;;;;;7.78;4.88;;;;;;;10.27;77.07;98911.75;5108554;28;20023;-77
2022/06/14 03:38:34;;;;;;;9.80;5.18;;;;;;;10.27;77.12;98915.28;5108391;28;20027;-77
2022/06/14 03:41:00;;;;;;;8.02;4.22;;;;;;;10.30;76.56;98919.41;5109964;28;20016;-78
2022/06/14 03:43:26;;;;;;;5.35;4.03;;;;;;;10.35;76.84;98922.13;5109790;28;20032;-77
2022/06/14 03:45:59;;;;;;;8.52;3.97;;;;;;;10.37;77.02;98917.19;5109379;28;20024;-78
2022/06/14 03:48:26;;;;;;;8.27;4.60;;;;;;;10.43;76.90;98932.50;5109560;28;20028;-78
2022/06/14 03:51:08;;;;;;;5.35;3.42;;;;;;;10.43;76.38;98929.75;5109663;28;20041;-77
2022/06/14 03:54:01;;;;;;;6.70;3.47;;;;;;;10.48;76.78;98928.94;5107595;28;20414;-79
2022/06/14 03:56:36;;;;;;;6.60;3.70;;;;;;;10.54;76.89;98924.22;5108395;28;20028;-78
2022/06/14 03:59:49;;;;;;;8.40;3.95;;;;;;;10.62;76.16;98929.09;5109543;28;20034;-77
2022/06/14 04:02:20;;;;;;;7.40;4.28;;;;;;;10.65;76.66;98925.78;5088566;28;20051;-78
2022/06/14 04:04:58;;;;;;;7.85;5.10;;;;;;;10.73;75.83;98924.34;5108733;28;20020;-78
2022/06/14 04:07:52;;;;;;;8.70;4.60;;;;;;;10.78;75.72;98937.22;5106858;28;20054;-78
2022/06/14 04:10:38;;;;;;;8.88;5.10;;;;;;;10.82;75.42;98930.88;5107535;28;20036;-76
2022/06/14 04:13:43;;;;;;;11.07;6.05;;;;;;;10.87;75.62;98935.50;5108333;28;20066;-77
2022/06/14 04:16:39;;;;;;;8.80;5.63;;;;;;;10.87;75.49;98938.25;5101921;28;20074;-77
2022/06/14 04:19:11;;;;;;;9.63;5.57;;;;;;;10.94;75.79;98943.41;5070062;28;20110;-77
2022/06/14 04:21:58;;;;;;;9.73;5.22;;;;;;;11.00;75.56;98945.81;5109249;28;20059;-77
2022/06/14 04:24:33;;;;;;;10.07;5.30;;;;;;;11.08;75.20;98947.13;5108819;28;20042;-77
2022/06/14 04:27:04;;;;;;;11.43;5.32;;;;;;;11.11;75.25;98945.75;5106833;28;20028;-77
2022/06/14 04:29:38;;;;;;;10.43;5.22;;;;;;;11.15;75.96;98949.56;5108380;28;20026;-78
2022/06/14 04:32:13;;;;;;;10.90;6.05;;;;;;;11.19;75.06;98950.63;5109078;28;20016;-77
2022/06/14 04:34:51;;;;;;;12.40;5.15;;;;;;;11.24;75.55;98942.31;5109513;28;20027;-78
2022/06/14 04:37:40;;;;;;;12.70;6.65;;;;;;;11.28;75.08;98948.06;5091300;28;20058;-77
2022/06/14 04:40:17;;;;;;;10.60;5.43;;;;;;;11.31;74.85;98953.78;5108587;28;20067;-77
2022/06/14 04:42:59;;;;;;;12.60;6.15;;;;;;;11.34;75.09;98943.34;5105775;28;20028;-78
2022/06/14 04:45:43;;;;;;;8.57;5.20;;;;;;;11.38;74.61;98945.22;5110482;28;20387;-78
2022/06/14 04:48:17;;;;;;;7.68;5.20;;;;;;;11.43;74.72;98938.84;5109046;28;20102;-78
2022/06/14 04:51:06;;;;;;;12.32;5.72;;;;;;;11.52;74.60;98948.09;5108274;28;20119;-79
2022/06/14 04:53:46;;;;;;;8.35;4.60;;;;;;;11.56;74.69;98935.44;5109700;28;20501;-78
2022/06/14 04:56:15;;;;;;;;;;;;;;;11.61;74.65;98940.84;5091615;28;20118;-77
2022/06/14 04:59:04;;;;;;;10.90;6.10;;;;;;;11.67;73.50;98949.03;5109483;28;19915;-78
2022/06/14 05:01:34;;;;;;;7.63;4.82;;;;;;;11.72;74.16;98948.97;5106004;28;20031;-77
2022/06/14 05:04:03;;;;;;;8.45;5.25;;;;;;;11.76;73.08;98944.53;5109473;28;20058;-77
2022/06/14 05:06:37;;;;;;;9.70;4.82;;;;;;;11.79;73.45;98945.91;5109198;28;20048;-77
2022/06/14 05:09:08;;;;;;;8.80;5.15;;;;;;;11.84;73.61;98954.91;5108882;28;20080;-77
2022/06/14 05:11:37;;;;;;;8.50;5.40;;;;;;;11.87;72.98;98951.56;5111011;28;20031;-78
2022/06/14 05:14:13;;;;;;;19.65;9.55;;;;;;;11.93;72.50;98952.31;5107554;28;20121;-79
2022/06/14 05:16:45;;;;;;;19.42;6.60;;;;;;;12.00;73.13;98952.00;5117571;27;20134;-79
2022/06/14 05:19:16;;;;;;;10.77;4.70;;;;;;;12.06;73.07;98959.06;5113351;28;20023;-78
2022/06/14 05:21:45;;;;;;;8.00;3.80;;;;;;;12.12;72.72;98949.63;5111417;28;20052;-78
2022/06/14 05:24:10;;;;;;;8.65;3.53;;;;;;;12.18;72.63;98948.47;5112730;28;20028;-78
2022/06/14 05:27:00;;;;;;;7.13;3.65;;;;;;;12.27;72.76;98950.56;5113763;28;20391;-77
2022/06/14 05:29:27;;;;;;;;;;;;;;;12.33;72.40;98946.63;5111544;27;20031;-78
2022/06/14 05:32:01;;;;;;;10.25;4.63;;;;;;;12.40;72.96;98954.50;5114194;28;19915;-76
2022/06/14 05:34:33;;;;;;;7.90;3.00;;;;;;;12.47;72.20;98950.25;5114000;28;20479;-78
2022/06/14 05:37:19;;;;;;;5.95;3.22;;;;;;;12.56;72.74;98953.19;5110613;28;20475;-78
2022/06/14 05:40:00;;;;;;;8.55;3.00;;;;;;;12.64;72.68;98952.50;5112607;28;20028;-77
2022/06/14 05:42:49;;;;;;;6.97;2.17;;;;;;;12.70;71.86;98958.75;5112185;28;20045;-77
2022/06/14 05:45:18;;;;;;;4.07;1.90;;;;;;;12.74;71.42;98962.56;5112849;28;20645;-76
2022/06/14 05:47:49;;;;;;;4.55;2.17;;;;;;;12.78;71.63;98965.53;5113114;28;20027;-77
2022/06/14 05:50:22;;;;;;;5.68;2.20;;;;;;;12.87;71.03;98962.91;5112768;28;20072;-77
2022/06/14 05:52:54;;;;;;;5.10;2.03;;;;;;;12.93;71.01;98962.53;5112681;28;20047;-78
2022/06/14 05:55:26;;;;;;;5.25;2.10;;;;;;;13.02;70.98;98975.63;5112171;28;20024;-77
2022/06/14 05:57:59;;;;;;;5.63;2.72;;;;;;;13.07;69.62;98976.34;5115164;27;20024;-76
2022/06/14 06:00:39;;;;;;;5.32;3.00;;;;;;;13.10;70.55;98984.03;5113760;28;20559;-75
2022/06/14 06:03:12;;;;;;;8.98;4.55;;;;;;;13.15;70.39;98983.09;5116235;27;20133;-75
2022/06/14 06:05:42;;;;;;;5.18;2.80;;;;;;;13.17;70.21;98975.38;5117978;27;20464;-76
2022/06/14 06:08:30;;;;;;;4.10;2.00;;;;;;;13.25;70.51;98974.69;5110164;28;20046;-76
2022/06/14 06:11:04;;;;;;;3.33;1.80;;;;;;;13.32;69.72;98985.31;5113733;28;20034;-74
2022/06/14 06:13:33;;;;;;;5.20;1.60;;;;;;;13.38;70.12;98984.09;5112106;28;20019;-75
2022/06/14 06:16:10;;;;;;;3.10;1.55;;;;;;;13.45;69.83;98985.69;5106568;28;20020;-75
2022/06/14 06:18:39;;;;;;;5.53;2.55;;;;;;;13.54;69.71;98976.41;5112477;27;20057;-76
2022/06/14 06:21:26;;;;;;;3.08;1.42;;;;;;;13.62;69.76;98983.19;5106888;27;20520;-74
2022/06/14 06:23:58;;;;;;;2.65;1.73;;;;;;;13.67;69.12;98983.06;5109438;28;20031;-74
2022/06/14 06:26:29;;;;;;;6.95;2.08;;;;;;;13.74;69.50;98981.84;5110655;28;20026;-73
2022/06/14 06:29:19;;;;;;;4.95;1.83;;;;;;;13.78;69.07;98985.63;5111597;28;20088;-74
2022/06/14 06:31:46;;;;;;;5.55;1.70;;;;;;;13.80;68.02;98989.75;5111886;28;20503;-74
2022/06/14 06:34:14;;;;;;;3.10;1.70;;;;;;;13.87;68.72;98991.25;5111259;27;20039;-75
2022/06/14 06:36:45;;;;;;;3.30;1.50;;;;;;;13.91;67.76;98990.34;5109734;27;20046;-74
2022/06/14 06:39:16;;;;;;;3.83;1.35;;;;;;;13.93;67.65;98990.88;5112045;27;20031;-75
2022/06/14 06:41:50;;;;;;;3.42;1.40;;;;;;;13.99;67.07;98981.38;5112174;28;20043;-74
2022/06/14 06:44:31;;;;;;;1.65;1.13;;;;;;;14.07;67.87;98981.75;5114992;27;20032;-75
2022/06/14 06:47:07;;;;;;;3.28;1.60;;;;;;;14.17;67.12;98987.06;5109853;28;20526;-75
2022/06/14 06:50:05;;;;;;;3.75;1.30;;;;;;;14.23;67.36;98988.59;5114379;27;20031;-74
2022/06/14 06:52:47;;;;;;;2.58;1.30;;;;;;;14.28;67.06;98985.75;5102563;27;20036;-74
2022/06/14 06:55:27;;;;;;;6.03;1.88;;;;;;;14.36;66.46;98988.91;5091265;28;20842;-75
2022/06/14 06:57:55;;;;;;;3.22;1.17;;;;;;;14.43;66.98;98981.03;5109427;28;20065;-76
2022/06/14 07:00:23;;;;;;;3.22;1.20;;;;;;;14.55;66.32;98988.78;5110999;27;20020;-75
2022/06/14 07:02:58;;;;;;;2.53;0.90;;;;;;;14.65;66.73;98987.72;5111679;28;20024;-74
2022/06/14 07:05:23;;;;;;;4.07;1.02;;;;;;;14.71;65.87;98981.00;5114898;27;20406;-73
2022/06/14 07:07:49;;;;;;;1.33;0.75;;;;;;;14.81;65.40;98986.28;5111117;27;20028;-76
2022/06/14 07:10:43;;;;;;;2.13;0.90;;;;;;;14.93;65.53;98984.91;5091285;28;20027;-75
2022/06/14 07:13:33;;;;;;;2.53;0.80;;;;;;;15.02;62.88;98991.31;5109644;27;20028;-75
2022/06/14 07:16:13;;;;;;;2.05;0.98;;;;;;;15.16;64.15;98989.31;5111196;28;20036;-73
2022/06/14 07:18:51;;;;;;;1.25;0.80;;;;;;;15.30;62.63;98993.94;5111374;28;20102;-74
2022/06/14 07:21:35;;;;;;;2.78;1.23;;;;;;;15.40;61.52;98992.91;5111337;28;20712;-74
2022/06/14 07:24:37;;;;;;;1.67;1.10;;;;;;;15.57;62.99;98994.94;5111149;28;20033;-73
2022/06/14 07:27:11;;;;;;;2.40;0.80;;;;;;;15.72;61.62;98993.72;5057810;28;20134;-74
2022/06/14 07:29:43;;;;;;;4.88;0.90;;;;;;;15.89;62.18;98988.31;5110458;28;20085;-74
2022/06/14 07:32:27;;;;;;;2.20;0.77;;;;;;;16.05;62.63;98996.19;5111182;27;20407;-74
2022/06/14 07:34:53;;;;;;;4.28;1.40;;;;;;;16.16;61.77;98994.75;5110669;27;20109;-74
2022/06/14 07:37:21;;;;;;;2.88;1.20;;;;;;;16.28;60.17;99001.66;5110058;28;20383;-73
2022/06/14 07:39:49;;;;;;;1.90;1.30;;;;;;;16.37;61.04;99006.06;5112374;27;20101;-74
2022/06/14 07:42:36;;;;;;;2.65;1.30;;;;;;;16.47;60.35;99002.16;5110170;27;20497;-73
2022/06/14 07:45:17;;;;;;;1.98;0.90;;;;;;;16.46;59.47;99003.31;5104560;28;20379;-77
2022/06/14 07:48:01;;;;;;;1.77;0.90;;;;;;;16.44;59.05;99007.53;5110763;27;20080;-78
2022/06/14 07:50:54;;;;;;;1.52;1.15;;;;;;;16.41;58.68;99013.72;5108724;28;20122;-77
2022/06/14 07:53:41;;;;;;;3.22;1.00;;;;;;;16.41;58.80;98999.88;5107637;28;20300;-79
2022/06/14 07:56:19;;;;;;;3.38;1.00;;;;;;;16.49;58.80;99008.19;5106200;28;20019;-81
2022/06/14 07:58:50;;;;;;;1.70;0.90;;;;;;;16.58;58.24;98999.09;5108368;27;20031;-81
2022/06/14 08:01:23;;;;;;;2.05;0.60;;;;;;;16.64;58.69;99003.34;5110499;27;20075;-80
2022/06/14 08:04:06;;;;;;;1.70;0.52;;;;;;;16.67;59.24;98999.94;5111785;27;20107;-81
2022/06/14 08:06:39;;;;;;;2.15;0.68;;;;;;;16.72;59.36;99008.06;5106574;28;20043;-82
2022/06/14 08:09:27;;;;;;;1.02;0.60;;;;;;;16.83;59.50;99008.59;5099486;27;20035;-79
2022/06/14 08:11:55;;;;;;;1.42;0.73;;;;;;;16.81;58.09;99005.31;5109327;27;20048;-81
2022/06/14 08:14:31;;;;;;;1.70;0.60;;;;;;;16.84;58.24;99010.22;5106019;28;20027;-76
2022/06/14 08:16:58;;;;;;;1.55;0.60;;;;;;;16.89;57.88;98996.22;5113044;28;20055;-84
2022/06/14 08:20:00;;;;;;;2.00;0.68;;;;;;;16.85;57.15;98997.16;5112316;27;20027;-79
2022/06/14 08:22:34;;;;;;;3.65;0.90;;;;;;;16.87;56.00;99001.25;5106332;28;20031;-78
2022/06/14 08:25:05;;;;;;;2.03;0.80;;;;;;;16.87;55.97;98998.50;5108227;28;20456;-81
2022/06/14 08:27:45;;;;;;;1.58;0.73;;;;;;;16.85;53.83;98999.94;5109538;28;20530;-79
2022/06/14 08:30:17;;;;;;;1.20;0.75;;;;;;;16.84;54.28;98995.53;5109802;28;20081;-78
2022/06/14 08:32:46;;;;;;;2.67;0.82;;;;;;;16.84;55.59;99001.91;5109547;28;20498;-75
2022/06/14 08:35:19;;;;;;;3.03;0.73;;;;;;;16.92;56.06;98997.50;5108724;28;20035;-76
2022/06/14 08:37:56;;;;;;;1.75;0.80;;;;;;;16.95;55.45;99000.41;5085751;28;20028;-76
2022/06/14 08:41:01;;;;;;;1.42;0.70;;;;;;;16.99;56.05;99006.19;5111884;28;20034;-79
2022/06/14 08:43:35;;;;;;;4.00;0.70;;;;;;;16.98;56.00;99003.72;5108559;28;20500;-78
2022/06/14 08:46:38;;;;;;;2.90;0.93;;;;;;;16.98;54.68;99004.53;5109626;28;20051;-77
2022/06/14 08:49:29;;;;;;;2.20;0.70;;;;;;;16.99;55.31;99014.50;5107338;28;20124;-78
2022/06/14 08:52:46;;;;;;;1.80;0.95;;;;;;;17.11;55.43;99009.13;5111458;27;20501;-78
2022/06/14 08:55:43;;;;;;;2.50;0.93;;;;;;;17.23;54.77;99000.13;5070342;27;20061;-79
2022/06/14 08:58:27;;;;;;;1.42;0.70;;;;;;;17.27;53.16;98997.50;5092125;28;20048;-76
2022/06/14 09:01:11;;;;;;;1.77;0.70;;;;;;;17.29;54.31;98991.66;5108987;28;20024;-76
2022/06/14 09:04:11;;;;;;;3.95;0.80;;;;;;;17.34;54.64;98992.28;5109953;27;20030;-76
2022/06/14 09:07:11;;;;;;;3.08;1.13;;;;;;;17.39;54.08;98983.81;5108592;28;20555;-77
2022/06/14 09:09:43;;;;;;;3.72;0.98;;;;;;;17.52;54.24;98984.75;5111961;27;20055;-76
2022/06/14 09:12:33;;;;;;;2.72;0.95;;;;;;;17.64;54.33;98978.50;5108803;28;20028;-77
2022/06/14 09:15:29;;;;;;;2.78;0.82;;;;;;;17.80;54.76;98989.09;5113475;27;20028;-78
2022/06/14 09:18:10;;;;;;;0.95;0.50;;;;;;;17.88;53.74;98990.19;5110207;28;20044;-80
2022/06/14 09:21:16;;;;;;;2.58;0.70;;;;;;;17.79;51.55;98984.69;5113791;27;20523;-79
2022/06/14 09:23:57;;;;;;;2.42;0.90;;;;;;;17.61;51.32;98983.91;5107150;28;20162;-80
2022/06/14 09:26:45;;;;;;;1.08;0.60;;;;;;;17.54;51.05;98988.00;5104704;28;20552;-78
2022/06/14 09:29:29;;;;;;;1.52;0.50;;;;;;;17.51;50.44;98982.31;5111790;28;20032;-78
2022/06/14 09:32:06;;;;;;;2.92;0.93;;;;;;;17.40;51.59;98990.97;5114005;27;20073;-78
2022/06/14 09:34:52;;;;;;;2.70;0.80;;;;;;;17.30;51.31;98983.00;5112081;28;20065;-79
2022/06/14 09:37:42;;;;;;;1.80;0.60;;;;;;;17.16;51.52;98974.88;5094287;28;20023;-81
2022/06/14 09:40:40;;;;;;;1.88;0.82;;;;;;;17.09;51.65;98966.22;5108320;27;20035;-76
2022/06/14 09:43:17;;;;;;;2.72;0.70;;;;;;;17.06;50.16;98967.72;5055882;28;20039;-78
2022/06/14 09:45:55;;;;;;;2.97;0.90;;;;;;;17.08;50.32;98956.28;5112578;28;20483;-76
2022/06/14 09:48:35;;;;;;;2.78;0.80;;;;;;;17.13;49.60;98963.59;5113142;28;20027;-76
2022/06/14 09:51:03;;;;;;;2.67;0.80;;;;;;;17.16;49.98;98957.41;5114146;28;20032;-77
2022/06/14 09:53:49;;;;;;;3.95;0.90;;;;;;;17.20;47.65;98967.53;5114004;28;20471;-80
2022/06/14 09:56:38;;;;;;;1.67;0.47;;;;;;;17.18;48.09;98957.91;5113280;28;20439;-78
2022/06/14 09:59:18;;;;;;;2.30;0.80;;;;;;;17.31;50.06;98962.44;5113304;27;20059;-78
2022/06/14 10:01:58;;;;;;;3.70;0.60;;;;;;;17.44;47.49;98949.53;5113360;27;20067;-84
2022/06/14 10:04:51;;;;;;;1.40;0.60;;;;;;;17.50;49.10;98951.00;5108668;28;20035;-80
2022/06/14 10:07:25;;;;;;;0.73;0.65;;;;;;;17.53;48.50;98953.09;5111588;27;20377;-82
2022/06/14 10:10:02;;;;;;;3.35;0.75;;;;;;;17.53;47.22;98963.38;5112590;28;20387;-82
2022/06/14 10:12:49;;;;;;;1.85;0.57;;;;;;;17.54;48.21;98949.19;5112289;28;20024;-83
2022/06/14 10:15:46;;;;;;;4.28;0.70;;;;;;;17.71;49.21;98955.84;5112406;28;20133;-83
2022/06/14 10:18:42;;;;;;;3.50;0.57;;;;;;;17.88;47.47;98952.16;5112552;28;20042;-84
2022/06/14 10:21:17;;;;;;;1.50;0.57;;;;;;;18.04;47.13;98952.44;5112578;28;20473;-83
2022/06/14 10:24:01;;;;;;;0.98;0.52;;;;;;;18.21;48.43;98953.50;5114392;27;20028;-83
2022/06/14 10:30:05;;;;;;;4.25;0.90;;;;;;;18.93;48.32;98938.75;5111437;28;20042;-80
2022/06/14 10:32:39;;;;;;;2.67;0.70;;;;;;;19.26;46.01;98938.00;5112571;27;20176;-79
2022/06/14 10:35:22;;;;;;;2.20;0.60;;;;;;;19.43;44.75;98942.56;5112743;27;20045;-80
2022/06/14 10:38:19;;;;;;;3.58;0.70;;;;;;;19.47;43.77;98935.16;5109632;27;20027;-79
2022/06/14 10:41:18;;;;;;;2.00;0.80;;;;;;;19.48;43.32;98939.56;5112746;27;20372;-81
2022/06/14 10:44:20;;;;;;;2.42;0.60;;;;;;;19.55;43.09;98939.81;5111901;27;20413;-80
2022/06/14 10:47:02;;;;;;;1.90;0.73;;;;;;;19.68;44.45;98923.16;5113558;27;20040;-82
2022/06/14 10:50:05;;;;;;;2.05;0.70;;;;;;;19.89;42.99;98925.84;5111926;28;20030;-81
2022/06/14 10:52:53;;;;;;;2.35;0.70;;;;;;;20.08;44.28;98925.28;5113826;27;20380;-72
2022/06/14 10:55:33;;;;;;;2.10;0.60;;;;;;;20.33;43.78;98925.22;5106788;28;20078;-80
2022/06/14 10:58:13;;;;;;;2.60;0.65;;;;;;;20.39;41.39;98909.91;5108086;28;20035;-81
2022/06/14 11:00:57;;;;;;;2.58;0.70;;;;;;;20.45;40.90;98919.66;5107864;27;20043;-81
2022/06/14 11:03:43;;;;;;;3.03;0.70;;;;;;;20.48;42.63;98918.13;5109477;27;20024;-82
2022/06/14 11:06:18;;;;;;;4.47;0.70;;;;;;;20.45;41.18;98919.66;5108513;28;20068;-79
2022/06/14 11:09:12;;;;;;;4.28;0.80;;;;;;;20.49;41.11;98916.97;5108453;28;20042;-80
2022/06/14 11:12:12;;;;;;;1.15;0.60;;;;;;;20.52;41.22;98917.09;5109578;28;20511;-77
2022/06/14 11:14:47;;;;;;;1.85;0.60;;;;;;;20.60;40.62;98915.31;5105153;28;20027;-81
2022/06/14 11:17:32;;;;;;;2.00;0.57;;;;;;;20.61;41.83;98913.31;5110522;27;20123;-80
2022/06/14 11:20:03;;;;;;;1.88;0.52;;;;;;;20.59;41.23;98910.09;5103700;28;20028;-81
2022/06/14 11:22:39;;;;;;;1.33;0.57;;;;;;;20.60;41.06;98914.50;5114031;27;20508;-78
2022/06/14 11:25:11;;;;;;;5.30;0.90;;;;;;;20.57;41.57;98907.66;5109592;28;20016;-79
2022/06/14 11:28:14;;;;;;;1.20;0.63;;;;;;;20.66;40.37;98916.69;5111257;27;20027;-75
2022/06/14 11:30:49;;;;;;;3.20;1.20;;;;;;;20.58;39.76;98916.84;5106192;28;20475;-77
2022/06/14 11:33:24;;;;;;;2.92;0.82;;;;;;;20.65;40.10;98917.03;5108680;28;20480;-77
2022/06/14 11:36:21;;;;;;;1.10;0.75;;;;;;;20.67;39.25;98923.06;5107390;27;20024;-76
2022/06/14 11:39:04;;;;;;;2.92;0.70;;;;;;;20.57;38.76;98915.22;5085076;28;20024;-80
2022/06/14 11:41:38;;;;;;;1.67;0.50;;;;;;;20.44;38.36;98906.06;5111021;27;20067;-73
2022/06/14 11:44:18;;;;;;;1.95;0.85;;;;;;;20.39;39.91;98907.13;5106418;28;20034;-77
2022/06/14 11:47:19;;;;;;;1.63;0.60;;;;;;;20.41;40.59;98898.41;5110650;27;20088;-72
2022/06/14 11:49:59;;;;;;;1.50;0.70;;;;;;;20.58;40.82;98919.63;5106488;28;20080;-77
2022/06/14 11:52:51;;;;;;;1.58;0.63;;;;;;;20.59;40.14;98919.28;5111515;27;20102;-77
2022/06/14 11:55:27;;;;;;;1.92;0.90;;;;;;;20.57;39.16;98923.59;5102360;28;20386;-76
2022/06/14 11:58:19;;;;;;;1.38;0.50;;;;;;;20.61;40.46;98911.38;5093984;28;20423;-76
2022/06/14 12:01:01;;;;;;;2.08;0.70;;;;;;;20.78;40.44;98910.28;5102820;28;20494;-76
2022/06/14 12:03:39;;;;;;;2.08;0.70;;;;;;;20.82;39.97;98910.38;5112091;27;20913;-75
2022/06/14 12:06:36;;;;;;;1.50;0.63;;;;;;;20.63;39.40;98917.41;5107232;28;20042;-75
2022/06/14 12:09:10;;;;;;;1.67;0.70;;;;;;;20.53;39.86;98918.72;5106436;27;20043;-75
2022/06/14 12:11:46;;;;;;;2.00;0.68;;;;;;;20.45;39.90;98916.88;5105280;28;20024;-76
2022/06/14 12:14:32;;;;;;;2.00;0.77;;;;;;;20.25;40.44;98915.03;5109100;28;20027;-72
2022/06/14 12:17:17;;;;;;;2.08;0.73;;;;;;;20.18;40.30;98918.41;5108640;28;20037;-76
2022/06/14 12:19:49;;;;;;;6.22;1.40;;;;;;;20.14;41.03;98918.31;5109405;27;20028;-77
2022/06/14 12:22:28;;;;;;;4.22;1.10;;;;;;;20.18;41.18;98912.84;5109290;28;20031;-76
2022/06/14 12:28:31;;;;;;;1.73;1.10;;;;;;;20.53;40.56;98909.53;5109699;28;20452;-76
2022/06/14 12:31:08;;;;;;;2.22;0.60;;;;;;;20.79;40.90;98908.31;5108405;28;20035;-74
2022/06/14 12:33:42;;;;;;;2.35;0.77;;;;;;;21.04;40.20;98900.66;5108859;28;20047;-75
2022/06/14 12:36:23;;;;;;;3.50;1.02;;;;;;;21.18;40.23;98899.44;5105338;28;20023;-75
2022/06/14 12:38:53;;;;;;;2.83;0.90;;;;;;;21.25;40.13;98892.06;5107940;28;20227;-75